<?xml version="1.0" encoding="UTF-8" standalone="no" ?>
<gpx xmlns="http://www.topografix.com/GPX/1/1" xmlns:xsi="http://www.w3.org/2001/XMLSchema-instance" xsi:schemaLocation="http://www.topografix.com/GPX/1/1 http://www.topografix.com/GPX/1/1/gpx.xsd" version="1.1" creator="VisuGPX - https://www.visugpx.com">
  <metadata>
    <name>Balade VTT Lingèvre</name>
    <desc><![CDATA[Petite boucle VTT à lingèvre]]></desc>
  </metadata>
  <trk>
    <name><![CDATA[Balade VTT Lingèvre_1]]></name>
    <trkseg>
      <trkpt lat="49.17547" lon="-0.67379">
        <ele>88.2</ele>
        <time>2011-08-15T13:13:32Z</time>
      </trkpt>
      <trkpt lat="49.17552" lon="-0.67379">
        <ele>86.8</ele>
        <time>2011-08-15T13:13:36Z</time>
      </trkpt>
      <trkpt lat="49.17559" lon="-0.67385">
        <ele>85.9</ele>
        <time>2011-08-15T13:13:40Z</time>
      </trkpt>
      <trkpt lat="49.17571" lon="-0.67408">
        <ele>85.9</ele>
        <time>2011-08-15T13:13:48Z</time>
      </trkpt>
      <trkpt lat="49.17587" lon="-0.67433">
        <ele>86.6</ele>
        <time>2011-08-15T13:13:57Z</time>
      </trkpt>
      <trkpt lat="49.17615" lon="-0.67468">
        <ele>87.4</ele>
        <time>2011-08-15T13:14:10Z</time>
      </trkpt>
      <trkpt lat="49.17632" lon="-0.67484">
        <ele>87.8</ele>
        <time>2011-08-15T13:14:16Z</time>
      </trkpt>
      <trkpt lat="49.17641" lon="-0.67492">
        <ele>87.8</ele>
        <time>2011-08-15T13:14:19Z</time>
      </trkpt>
      <trkpt lat="49.17648" lon="-0.67495">
        <ele>87.6</ele>
        <time>2011-08-15T13:14:21Z</time>
      </trkpt>
      <trkpt lat="49.17655" lon="-0.67495">
        <ele>86.7</ele>
        <time>2011-08-15T13:14:23Z</time>
      </trkpt>
      <trkpt lat="49.17665" lon="-0.67492">
        <ele>85.2</ele>
        <time>2011-08-15T13:14:26Z</time>
      </trkpt>
      <trkpt lat="49.17706" lon="-0.67468">
        <ele>75</ele>
        <time>2011-08-15T13:14:36Z</time>
      </trkpt>
      <trkpt lat="49.17736" lon="-0.67445">
        <ele>72</ele>
        <time>2011-08-15T13:14:42Z</time>
      </trkpt>
      <trkpt lat="49.17774" lon="-0.6741">
        <ele>74.2</ele>
        <time>2011-08-15T13:14:51Z</time>
      </trkpt>
      <trkpt lat="49.17793" lon="-0.67398">
        <ele>74.3</ele>
        <time>2011-08-15T13:14:56Z</time>
      </trkpt>
      <trkpt lat="49.17821" lon="-0.67385">
        <ele>74.7</ele>
        <time>2011-08-15T13:15:03Z</time>
      </trkpt>
      <trkpt lat="49.17849" lon="-0.67375">
        <ele>74</ele>
        <time>2011-08-15T13:15:10Z</time>
      </trkpt>
      <trkpt lat="49.17856" lon="-0.67373">
        <ele>73.5</ele>
        <time>2011-08-15T13:15:12Z</time>
      </trkpt>
      <trkpt lat="49.1786" lon="-0.67374">
        <ele>73.6</ele>
        <time>2011-08-15T13:15:13Z</time>
      </trkpt>
      <trkpt lat="49.17862" lon="-0.67378">
        <ele>73.9</ele>
        <time>2011-08-15T13:15:14Z</time>
      </trkpt>
      <trkpt lat="49.17865" lon="-0.67388">
        <ele>74.5</ele>
        <time>2011-08-15T13:15:16Z</time>
      </trkpt>
      <trkpt lat="49.17873" lon="-0.67458">
        <ele>75.7</ele>
        <time>2011-08-15T13:15:29Z</time>
      </trkpt>
      <trkpt lat="49.17874" lon="-0.67463">
        <ele>76.5</ele>
        <time>2011-08-15T13:15:30Z</time>
      </trkpt>
      <trkpt lat="49.17878" lon="-0.67467">
        <ele>80</ele>
        <time>2011-08-15T13:15:31Z</time>
      </trkpt>
      <trkpt lat="49.1788" lon="-0.67477">
        <ele>83</ele>
        <time>2011-08-15T13:15:33Z</time>
      </trkpt>
      <trkpt lat="49.17889" lon="-0.67559">
        <ele>86</ele>
        <time>2011-08-15T13:15:47Z</time>
      </trkpt>
      <trkpt lat="49.17892" lon="-0.67574">
        <ele>86.4</ele>
        <time>2011-08-15T13:15:50Z</time>
      </trkpt>
      <trkpt lat="49.17929" lon="-0.67691">
        <ele>90.1</ele>
        <time>2011-08-15T13:16:12Z</time>
      </trkpt>
      <trkpt lat="49.17952" lon="-0.67783">
        <ele>89.7</ele>
        <time>2011-08-15T13:16:28Z</time>
      </trkpt>
      <trkpt lat="49.17964" lon="-0.67835">
        <ele>88.5</ele>
        <time>2011-08-15T13:16:37Z</time>
      </trkpt>
      <trkpt lat="49.17969" lon="-0.67869">
        <ele>89.7</ele>
        <time>2011-08-15T13:16:43Z</time>
      </trkpt>
      <trkpt lat="49.17984" lon="-0.67932">
        <ele>89.1</ele>
        <time>2011-08-15T13:16:54Z</time>
      </trkpt>
      <trkpt lat="49.17987" lon="-0.67954">
        <ele>89.9</ele>
        <time>2011-08-15T13:16:58Z</time>
      </trkpt>
      <trkpt lat="49.17988" lon="-0.67971">
        <ele>90</ele>
        <time>2011-08-15T13:17:01Z</time>
      </trkpt>
      <trkpt lat="49.17984" lon="-0.67996">
        <ele>90</ele>
        <time>2011-08-15T13:17:05Z</time>
      </trkpt>
      <trkpt lat="49.17971" lon="-0.68041">
        <ele>88.5</ele>
        <time>2011-08-15T13:17:12Z</time>
      </trkpt>
      <trkpt lat="49.17967" lon="-0.68062">
        <ele>88.3</ele>
        <time>2011-08-15T13:17:15Z</time>
      </trkpt>
      <trkpt lat="49.17968" lon="-0.68148">
        <ele>89.8</ele>
        <time>2011-08-15T13:17:28Z</time>
      </trkpt>
      <trkpt lat="49.17961" lon="-0.68204">
        <ele>89.5</ele>
        <time>2011-08-15T13:17:37Z</time>
      </trkpt>
      <trkpt lat="49.17945" lon="-0.68276">
        <ele>89.8</ele>
        <time>2011-08-15T13:17:49Z</time>
      </trkpt>
      <trkpt lat="49.17934" lon="-0.6832">
        <ele>89.3</ele>
        <time>2011-08-15T13:17:56Z</time>
      </trkpt>
      <trkpt lat="49.17904" lon="-0.68414">
        <ele>90.5</ele>
        <time>2011-08-15T13:18:11Z</time>
      </trkpt>
      <trkpt lat="49.17889" lon="-0.68451">
        <ele>90.7</ele>
        <time>2011-08-15T13:18:17Z</time>
      </trkpt>
      <trkpt lat="49.17844" lon="-0.6855">
        <ele>91.8</ele>
        <time>2011-08-15T13:18:34Z</time>
      </trkpt>
      <trkpt lat="49.17837" lon="-0.6856">
        <ele>91.4</ele>
        <time>2011-08-15T13:18:36Z</time>
      </trkpt>
      <trkpt lat="49.17825" lon="-0.68582">
        <ele>91.5</ele>
        <time>2011-08-15T13:18:40Z</time>
      </trkpt>
      <trkpt lat="49.17799" lon="-0.68648">
        <ele>92.3</ele>
        <time>2011-08-15T13:18:51Z</time>
      </trkpt>
      <trkpt lat="49.17785" lon="-0.68678">
        <ele>92.7</ele>
        <time>2011-08-15T13:18:57Z</time>
      </trkpt>
      <trkpt lat="49.17778" lon="-0.68689">
        <ele>92.2</ele>
        <time>2011-08-15T13:19:00Z</time>
      </trkpt>
      <trkpt lat="49.17777" lon="-0.687">
        <ele>92.2</ele>
        <time>2011-08-15T13:19:02Z</time>
      </trkpt>
      <trkpt lat="49.17778" lon="-0.68705">
        <ele>92.1</ele>
        <time>2011-08-15T13:19:03Z</time>
      </trkpt>
      <trkpt lat="49.17781" lon="-0.68708">
        <ele>92.4</ele>
        <time>2011-08-15T13:19:04Z</time>
      </trkpt>
      <trkpt lat="49.17804" lon="-0.68725">
        <ele>94.3</ele>
        <time>2011-08-15T13:19:10Z</time>
      </trkpt>
      <trkpt lat="49.17817" lon="-0.68738">
        <ele>94.1</ele>
        <time>2011-08-15T13:19:14Z</time>
      </trkpt>
      <trkpt lat="49.17824" lon="-0.68742">
        <ele>97.2</ele>
        <time>2011-08-15T13:19:16Z</time>
      </trkpt>
      <trkpt lat="49.17831" lon="-0.6875">
        <ele>101.1</ele>
        <time>2011-08-15T13:19:19Z</time>
      </trkpt>
      <trkpt lat="49.17833" lon="-0.68758">
        <ele>104.1</ele>
        <time>2011-08-15T13:19:21Z</time>
      </trkpt>
      <trkpt lat="49.17833" lon="-0.68774">
        <ele>106.9</ele>
        <time>2011-08-15T13:19:25Z</time>
      </trkpt>
      <trkpt lat="49.17838" lon="-0.68785">
        <ele>105.2</ele>
        <time>2011-08-15T13:19:28Z</time>
      </trkpt>
      <trkpt lat="49.17852" lon="-0.68798">
        <ele>103</ele>
        <time>2011-08-15T13:19:35Z</time>
      </trkpt>
      <trkpt lat="49.17869" lon="-0.68809">
        <ele>99.8</ele>
        <time>2011-08-15T13:19:41Z</time>
      </trkpt>
      <trkpt lat="49.17886" lon="-0.68823">
        <ele>98.6</ele>
        <time>2011-08-15T13:19:48Z</time>
      </trkpt>
      <trkpt lat="49.17909" lon="-0.68848">
        <ele>97.6</ele>
        <time>2011-08-15T13:19:58Z</time>
      </trkpt>
      <trkpt lat="49.17914" lon="-0.68851">
        <ele>97.7</ele>
        <time>2011-08-15T13:20:00Z</time>
      </trkpt>
      <trkpt lat="49.17922" lon="-0.68849">
        <ele>97.8</ele>
        <time>2011-08-15T13:20:03Z</time>
      </trkpt>
      <trkpt lat="49.17938" lon="-0.68838">
        <ele>95.7</ele>
        <time>2011-08-15T13:20:10Z</time>
      </trkpt>
      <trkpt lat="49.17964" lon="-0.68826">
        <ele>98.5</ele>
        <time>2011-08-15T13:20:20Z</time>
      </trkpt>
      <trkpt lat="49.18022" lon="-0.68806">
        <ele>92.7</ele>
        <time>2011-08-15T13:20:40Z</time>
      </trkpt>
      <trkpt lat="49.18055" lon="-0.68788">
        <ele>95.5</ele>
        <time>2011-08-15T13:20:51Z</time>
      </trkpt>
      <trkpt lat="49.18099" lon="-0.68771">
        <ele>97.8</ele>
        <time>2011-08-15T13:21:07Z</time>
      </trkpt>
      <trkpt lat="49.18117" lon="-0.68765">
        <ele>96</ele>
        <time>2011-08-15T13:21:13Z</time>
      </trkpt>
      <trkpt lat="49.18127" lon="-0.68764">
        <ele>95.2</ele>
        <time>2011-08-15T13:21:16Z</time>
      </trkpt>
      <trkpt lat="49.18136" lon="-0.68759">
        <ele>95.7</ele>
        <time>2011-08-15T13:21:19Z</time>
      </trkpt>
      <trkpt lat="49.18155" lon="-0.68756">
        <ele>97.8</ele>
        <time>2011-08-15T13:21:25Z</time>
      </trkpt>
      <trkpt lat="49.18168" lon="-0.68755">
        <ele>95</ele>
        <time>2011-08-15T13:21:29Z</time>
      </trkpt>
      <trkpt lat="49.18192" lon="-0.68749">
        <ele>97.7</ele>
        <time>2011-08-15T13:21:36Z</time>
      </trkpt>
      <trkpt lat="49.18202" lon="-0.68746">
        <ele>98.7</ele>
        <time>2011-08-15T13:21:39Z</time>
      </trkpt>
      <trkpt lat="49.18204" lon="-0.68746">
        <ele>99.2</ele>
        <time>2011-08-15T13:21:40Z</time>
      </trkpt>
      <trkpt lat="49.18205" lon="-0.68751">
        <ele>100.2</ele>
        <time>2011-08-15T13:21:42Z</time>
      </trkpt>
      <trkpt lat="49.18205" lon="-0.68772">
        <ele>102.9</ele>
        <time>2011-08-15T13:21:50Z</time>
      </trkpt>
      <trkpt lat="49.18207" lon="-0.68793">
        <ele>105.1</ele>
        <time>2011-08-15T13:21:57Z</time>
      </trkpt>
      <trkpt lat="49.18207" lon="-0.68861">
        <ele>105.5</ele>
        <time>2011-08-15T13:22:59Z</time>
      </trkpt>
      <trkpt lat="49.18209" lon="-0.68865">
        <ele>105.3</ele>
        <time>2011-08-15T13:23:04Z</time>
      </trkpt>
      <trkpt lat="49.18209" lon="-0.68873">
        <ele>104.9</ele>
        <time>2011-08-15T13:24:01Z</time>
      </trkpt>
      <trkpt lat="49.18211" lon="-0.68953">
        <ele>106.3</ele>
        <time>2011-08-15T13:26:06Z</time>
      </trkpt>
      <trkpt lat="49.18216" lon="-0.69024">
        <ele>107.2</ele>
        <time>2011-08-15T13:26:24Z</time>
      </trkpt>
      <trkpt lat="49.18213" lon="-0.69083">
        <ele>108.4</ele>
        <time>2011-08-15T13:26:37Z</time>
      </trkpt>
      <trkpt lat="49.18211" lon="-0.69106">
        <ele>109.7</ele>
        <time>2011-08-15T13:26:43Z</time>
      </trkpt>
      <trkpt lat="49.18205" lon="-0.69125">
        <ele>111.7</ele>
        <time>2011-08-15T13:26:49Z</time>
      </trkpt>
      <trkpt lat="49.18179" lon="-0.69173">
        <ele>113.9</ele>
        <time>2011-08-15T13:27:05Z</time>
      </trkpt>
      <trkpt lat="49.18168" lon="-0.69188">
        <ele>113.9</ele>
        <time>2011-08-15T13:27:13Z</time>
      </trkpt>
      <trkpt lat="49.18161" lon="-0.69192">
        <ele>115.3</ele>
        <time>2011-08-15T13:27:16Z</time>
      </trkpt>
      <trkpt lat="49.18151" lon="-0.69207">
        <ele>113.9</ele>
        <time>2011-08-15T13:27:25Z</time>
      </trkpt>
      <trkpt lat="49.1814" lon="-0.69215">
        <ele>115.2</ele>
        <time>2011-08-15T13:27:29Z</time>
      </trkpt>
      <trkpt lat="49.18129" lon="-0.69236">
        <ele>111.8</ele>
        <time>2011-08-15T13:27:37Z</time>
      </trkpt>
      <trkpt lat="49.18114" lon="-0.69256">
        <ele>113.7</ele>
        <time>2011-08-15T13:27:48Z</time>
      </trkpt>
      <trkpt lat="49.18107" lon="-0.6926">
        <ele>116.2</ele>
        <time>2011-08-15T13:27:51Z</time>
      </trkpt>
      <trkpt lat="49.18069" lon="-0.69305">
        <ele>121.8</ele>
        <time>2011-08-15T13:28:12Z</time>
      </trkpt>
      <trkpt lat="49.18061" lon="-0.69313">
        <ele>122.3</ele>
        <time>2011-08-15T13:28:15Z</time>
      </trkpt>
      <trkpt lat="49.18057" lon="-0.69323">
        <ele>119.6</ele>
        <time>2011-08-15T13:28:18Z</time>
      </trkpt>
      <trkpt lat="49.18053" lon="-0.69327">
        <ele>121.3</ele>
        <time>2011-08-15T13:28:20Z</time>
      </trkpt>
      <trkpt lat="49.1804" lon="-0.69353">
        <ele>119.5</ele>
        <time>2011-08-15T13:28:30Z</time>
      </trkpt>
      <trkpt lat="49.18034" lon="-0.69363">
        <ele>118.2</ele>
        <time>2011-08-15T13:28:33Z</time>
      </trkpt>
      <trkpt lat="49.1803" lon="-0.69378">
        <ele>116.9</ele>
        <time>2011-08-15T13:28:36Z</time>
      </trkpt>
      <trkpt lat="49.18021" lon="-0.69389">
        <ele>117.2</ele>
        <time>2011-08-15T13:28:39Z</time>
      </trkpt>
      <trkpt lat="49.18011" lon="-0.69412">
        <ele>117.5</ele>
        <time>2011-08-15T13:28:43Z</time>
      </trkpt>
      <trkpt lat="49.18006" lon="-0.6943">
        <ele>115.9</ele>
        <time>2011-08-15T13:28:46Z</time>
      </trkpt>
      <trkpt lat="49.17991" lon="-0.69469">
        <ele>116.1</ele>
        <time>2011-08-15T13:28:54Z</time>
      </trkpt>
      <trkpt lat="49.17973" lon="-0.6951">
        <ele>117.1</ele>
        <time>2011-08-15T13:29:03Z</time>
      </trkpt>
      <trkpt lat="49.17955" lon="-0.69561">
        <ele>115.7</ele>
        <time>2011-08-15T13:29:21Z</time>
      </trkpt>
      <trkpt lat="49.17951" lon="-0.69566">
        <ele>115.6</ele>
        <time>2011-08-15T13:29:24Z</time>
      </trkpt>
      <trkpt lat="49.17949" lon="-0.69578">
        <ele>114.7</ele>
        <time>2011-08-15T13:29:28Z</time>
      </trkpt>
      <trkpt lat="49.17933" lon="-0.69614">
        <ele>115.1</ele>
        <time>2011-08-15T13:29:40Z</time>
      </trkpt>
      <trkpt lat="49.17929" lon="-0.69628">
        <ele>115.6</ele>
        <time>2011-08-15T13:29:44Z</time>
      </trkpt>
      <trkpt lat="49.1792" lon="-0.69652">
        <ele>119.3</ele>
        <time>2011-08-15T13:29:52Z</time>
      </trkpt>
      <trkpt lat="49.17914" lon="-0.69665">
        <ele>119.5</ele>
        <time>2011-08-15T13:29:55Z</time>
      </trkpt>
      <trkpt lat="49.17904" lon="-0.69678">
        <ele>118</ele>
        <time>2011-08-15T13:29:59Z</time>
      </trkpt>
      <trkpt lat="49.17856" lon="-0.69784">
        <ele>111.3</ele>
        <time>2011-08-15T13:30:26Z</time>
      </trkpt>
      <trkpt lat="49.17847" lon="-0.69811">
        <ele>109.1</ele>
        <time>2011-08-15T13:30:32Z</time>
      </trkpt>
      <trkpt lat="49.1783" lon="-0.69847">
        <ele>110.2</ele>
        <time>2011-08-15T13:30:41Z</time>
      </trkpt>
      <trkpt lat="49.17819" lon="-0.69877">
        <ele>109.9</ele>
        <time>2011-08-15T13:30:48Z</time>
      </trkpt>
      <trkpt lat="49.17794" lon="-0.69927">
        <ele>111.1</ele>
        <time>2011-08-15T13:31:01Z</time>
      </trkpt>
      <trkpt lat="49.17788" lon="-0.69953">
        <ele>111.2</ele>
        <time>2011-08-15T13:31:26Z</time>
      </trkpt>
      <trkpt lat="49.1778" lon="-0.69967">
        <ele>111.8</ele>
        <time>2011-08-15T13:31:30Z</time>
      </trkpt>
      <trkpt lat="49.17748" lon="-0.7004">
        <ele>114.2</ele>
        <time>2011-08-15T13:31:49Z</time>
      </trkpt>
      <trkpt lat="49.17723" lon="-0.70107">
        <ele>110.5</ele>
        <time>2011-08-15T13:32:06Z</time>
      </trkpt>
      <trkpt lat="49.17695" lon="-0.7016">
        <ele>115.9</ele>
        <time>2011-08-15T13:32:23Z</time>
      </trkpt>
      <trkpt lat="49.17698" lon="-0.70162">
        <ele>108</ele>
        <time>2011-08-15T13:33:00Z</time>
      </trkpt>
      <trkpt lat="49.17696" lon="-0.7016">
        <ele>109.5</ele>
        <time>2011-08-15T13:33:29Z</time>
      </trkpt>
      <trkpt lat="49.17699" lon="-0.70164">
        <ele>107.4</ele>
        <time>2011-08-15T13:33:53Z</time>
      </trkpt>
      <trkpt lat="49.17697" lon="-0.70166">
        <ele>109.8</ele>
        <time>2011-08-15T13:34:26Z</time>
      </trkpt>
      <trkpt lat="49.17696" lon="-0.70165">
        <ele>111.1</ele>
        <time>2011-08-15T13:34:34Z</time>
      </trkpt>
      <trkpt lat="49.17693" lon="-0.70156">
        <ele>115.4</ele>
        <time>2011-08-15T13:35:28Z</time>
      </trkpt>
      <trkpt lat="49.17671" lon="-0.70214">
        <ele>120.4</ele>
        <time>2011-08-15T13:35:47Z</time>
      </trkpt>
      <trkpt lat="49.17665" lon="-0.70225">
        <ele>119</ele>
        <time>2011-08-15T13:35:51Z</time>
      </trkpt>
      <trkpt lat="49.17658" lon="-0.70243">
        <ele>119.3</ele>
        <time>2011-08-15T13:35:57Z</time>
      </trkpt>
      <trkpt lat="49.1765" lon="-0.70256">
        <ele>121.2</ele>
        <time>2011-08-15T13:36:03Z</time>
      </trkpt>
      <trkpt lat="49.17642" lon="-0.7028">
        <ele>120.7</ele>
        <time>2011-08-15T13:36:11Z</time>
      </trkpt>
      <trkpt lat="49.17633" lon="-0.70296">
        <ele>120.5</ele>
        <time>2011-08-15T13:36:17Z</time>
      </trkpt>
      <trkpt lat="49.17622" lon="-0.70329">
        <ele>117.3</ele>
        <time>2011-08-15T13:36:26Z</time>
      </trkpt>
      <trkpt lat="49.17605" lon="-0.70361">
        <ele>120.2</ele>
        <time>2011-08-15T13:36:37Z</time>
      </trkpt>
      <trkpt lat="49.17589" lon="-0.704">
        <ele>121.7</ele>
        <time>2011-08-15T13:36:49Z</time>
      </trkpt>
      <trkpt lat="49.1758" lon="-0.70415">
        <ele>123.3</ele>
        <time>2011-08-15T13:36:55Z</time>
      </trkpt>
      <trkpt lat="49.17576" lon="-0.70428">
        <ele>124.2</ele>
        <time>2011-08-15T13:36:59Z</time>
      </trkpt>
      <trkpt lat="49.17568" lon="-0.70444">
        <ele>126</ele>
        <time>2011-08-15T13:37:04Z</time>
      </trkpt>
      <trkpt lat="49.17566" lon="-0.70451">
        <ele>124.3</ele>
        <time>2011-08-15T13:37:06Z</time>
      </trkpt>
      <trkpt lat="49.17561" lon="-0.70464">
        <ele>125.2</ele>
        <time>2011-08-15T13:37:10Z</time>
      </trkpt>
      <trkpt lat="49.17547" lon="-0.7051">
        <ele>124.4</ele>
        <time>2011-08-15T13:37:23Z</time>
      </trkpt>
      <trkpt lat="49.17541" lon="-0.70517">
        <ele>124.8</ele>
        <time>2011-08-15T13:37:26Z</time>
      </trkpt>
      <trkpt lat="49.17535" lon="-0.70537">
        <ele>124.2</ele>
        <time>2011-08-15T13:37:32Z</time>
      </trkpt>
      <trkpt lat="49.17526" lon="-0.70548">
        <ele>127.5</ele>
        <time>2011-08-15T13:37:37Z</time>
      </trkpt>
      <trkpt lat="49.17521" lon="-0.70559">
        <ele>127.1</ele>
        <time>2011-08-15T13:37:41Z</time>
      </trkpt>
      <trkpt lat="49.17516" lon="-0.70581">
        <ele>128</ele>
        <time>2011-08-15T13:37:47Z</time>
      </trkpt>
      <trkpt lat="49.17509" lon="-0.70592">
        <ele>127.3</ele>
        <time>2011-08-15T13:37:51Z</time>
      </trkpt>
      <trkpt lat="49.17489" lon="-0.70634">
        <ele>126.5</ele>
        <time>2011-08-15T13:38:05Z</time>
      </trkpt>
      <trkpt lat="49.17442" lon="-0.70741">
        <ele>127.4</ele>
        <time>2011-08-15T13:38:34Z</time>
      </trkpt>
      <trkpt lat="49.17426" lon="-0.70781">
        <ele>130.6</ele>
        <time>2011-08-15T13:38:44Z</time>
      </trkpt>
      <trkpt lat="49.17421" lon="-0.70789">
        <ele>129.6</ele>
        <time>2011-08-15T13:38:48Z</time>
      </trkpt>
      <trkpt lat="49.17415" lon="-0.70791">
        <ele>129</ele>
        <time>2011-08-15T13:38:51Z</time>
      </trkpt>
      <trkpt lat="49.17358" lon="-0.70782">
        <ele>126.3</ele>
        <time>2011-08-15T13:39:09Z</time>
      </trkpt>
      <trkpt lat="49.17226" lon="-0.70748">
        <ele>128.1</ele>
        <time>2011-08-15T13:39:44Z</time>
      </trkpt>
      <trkpt lat="49.172" lon="-0.7074">
        <ele>130</ele>
        <time>2011-08-15T13:39:50Z</time>
      </trkpt>
      <trkpt lat="49.17172" lon="-0.70735">
        <ele>128.7</ele>
        <time>2011-08-15T13:39:57Z</time>
      </trkpt>
      <trkpt lat="49.17133" lon="-0.70722">
        <ele>129.6</ele>
        <time>2011-08-15T13:40:07Z</time>
      </trkpt>
      <trkpt lat="49.17002" lon="-0.7069">
        <ele>127.8</ele>
        <time>2011-08-15T13:40:38Z</time>
      </trkpt>
      <trkpt lat="49.16991" lon="-0.70685">
        <ele>127.7</ele>
        <time>2011-08-15T13:40:43Z</time>
      </trkpt>
      <trkpt lat="49.16986" lon="-0.70678">
        <ele>127.8</ele>
        <time>2011-08-15T13:40:46Z</time>
      </trkpt>
      <trkpt lat="49.16985" lon="-0.70647">
        <ele>130.1</ele>
        <time>2011-08-15T13:40:53Z</time>
      </trkpt>
      <trkpt lat="49.16981" lon="-0.70612">
        <ele>131.7</ele>
        <time>2011-08-15T13:41:00Z</time>
      </trkpt>
      <trkpt lat="49.16982" lon="-0.70592">
        <ele>135.2</ele>
        <time>2011-08-15T13:41:04Z</time>
      </trkpt>
      <trkpt lat="49.16975" lon="-0.70547">
        <ele>131.1</ele>
        <time>2011-08-15T13:41:12Z</time>
      </trkpt>
      <trkpt lat="49.16966" lon="-0.70475">
        <ele>126.7</ele>
        <time>2011-08-15T13:41:25Z</time>
      </trkpt>
      <trkpt lat="49.16966" lon="-0.70449">
        <ele>123</ele>
        <time>2011-08-15T13:41:32Z</time>
      </trkpt>
      <trkpt lat="49.16956" lon="-0.7039">
        <ele>122.4</ele>
        <time>2011-08-15T13:41:45Z</time>
      </trkpt>
      <trkpt lat="49.16953" lon="-0.70344">
        <ele>122.7</ele>
        <time>2011-08-15T13:41:54Z</time>
      </trkpt>
      <trkpt lat="49.16953" lon="-0.7032">
        <ele>121.6</ele>
        <time>2011-08-15T13:42:00Z</time>
      </trkpt>
      <trkpt lat="49.16946" lon="-0.70268">
        <ele>121.9</ele>
        <time>2011-08-15T13:42:10Z</time>
      </trkpt>
      <trkpt lat="49.16944" lon="-0.70224">
        <ele>123</ele>
        <time>2011-08-15T13:42:19Z</time>
      </trkpt>
      <trkpt lat="49.16933" lon="-0.70138">
        <ele>124.2</ele>
        <time>2011-08-15T13:42:38Z</time>
      </trkpt>
      <trkpt lat="49.16932" lon="-0.70115">
        <ele>125</ele>
        <time>2011-08-15T13:42:43Z</time>
      </trkpt>
      <trkpt lat="49.16922" lon="-0.7003">
        <ele>122.3</ele>
        <time>2011-08-15T13:43:04Z</time>
      </trkpt>
      <trkpt lat="49.1691" lon="-0.69957">
        <ele>120.2</ele>
        <time>2011-08-15T13:43:29Z</time>
      </trkpt>
      <trkpt lat="49.16899" lon="-0.69809">
        <ele>119.4</ele>
        <time>2011-08-15T13:44:28Z</time>
      </trkpt>
      <trkpt lat="49.16897" lon="-0.69804">
        <ele>116.7</ele>
        <time>2011-08-15T13:44:34Z</time>
      </trkpt>
      <trkpt lat="49.16895" lon="-0.69804">
        <ele>116.7</ele>
        <time>2011-08-15T13:44:40Z</time>
      </trkpt>
      <trkpt lat="49.16896" lon="-0.69798">
        <ele>120.6</ele>
        <time>2011-08-15T13:44:52Z</time>
      </trkpt>
      <trkpt lat="49.16893" lon="-0.69789">
        <ele>119</ele>
        <time>2011-08-15T13:45:03Z</time>
      </trkpt>
      <trkpt lat="49.16888" lon="-0.69727">
        <ele>117.8</ele>
        <time>2011-08-15T13:45:25Z</time>
      </trkpt>
      <trkpt lat="49.16888" lon="-0.69701">
        <ele>119.6</ele>
        <time>2011-08-15T13:45:34Z</time>
      </trkpt>
      <trkpt lat="49.16884" lon="-0.69682">
        <ele>118.9</ele>
        <time>2011-08-15T13:45:40Z</time>
      </trkpt>
      <trkpt lat="49.16881" lon="-0.69637">
        <ele>122</ele>
        <time>2011-08-15T13:45:57Z</time>
      </trkpt>
      <trkpt lat="49.16878" lon="-0.69626">
        <ele>124.4</ele>
        <time>2011-08-15T13:46:03Z</time>
      </trkpt>
      <trkpt lat="49.16877" lon="-0.696">
        <ele>124.2</ele>
        <time>2011-08-15T13:46:17Z</time>
      </trkpt>
      <trkpt lat="49.16872" lon="-0.69594">
        <ele>120.3</ele>
        <time>2011-08-15T13:47:19Z</time>
      </trkpt>
      <trkpt lat="49.16872" lon="-0.69593">
        <ele>118.8</ele>
        <time>2011-08-15T13:47:26Z</time>
      </trkpt>
      <trkpt lat="49.1687" lon="-0.69552">
        <ele>121.8</ele>
        <time>2011-08-15T13:47:48Z</time>
      </trkpt>
      <trkpt lat="49.16865" lon="-0.69524">
        <ele>120.9</ele>
        <time>2011-08-15T13:47:55Z</time>
      </trkpt>
      <trkpt lat="49.16862" lon="-0.69489">
        <ele>120.6</ele>
        <time>2011-08-15T13:48:02Z</time>
      </trkpt>
      <trkpt lat="49.16853" lon="-0.6941">
        <ele>119.9</ele>
        <time>2011-08-15T13:48:15Z</time>
      </trkpt>
      <trkpt lat="49.1685" lon="-0.69355">
        <ele>121</ele>
        <time>2011-08-15T13:48:25Z</time>
      </trkpt>
      <trkpt lat="49.16845" lon="-0.69324">
        <ele>119.8</ele>
        <time>2011-08-15T13:48:39Z</time>
      </trkpt>
      <trkpt lat="49.16843" lon="-0.69319">
        <ele>117.2</ele>
        <time>2011-08-15T13:48:49Z</time>
      </trkpt>
      <trkpt lat="49.16842" lon="-0.69296">
        <ele>116.2</ele>
        <time>2011-08-15T13:48:56Z</time>
      </trkpt>
      <trkpt lat="49.16839" lon="-0.69273">
        <ele>116.3</ele>
        <time>2011-08-15T13:49:04Z</time>
      </trkpt>
      <trkpt lat="49.16838" lon="-0.69249">
        <ele>118.5</ele>
        <time>2011-08-15T13:49:14Z</time>
      </trkpt>
      <trkpt lat="49.16837" lon="-0.69245">
        <ele>118.6</ele>
        <time>2011-08-15T13:49:16Z</time>
      </trkpt>
      <trkpt lat="49.16836" lon="-0.69225">
        <ele>118.1</ele>
        <time>2011-08-15T13:49:31Z</time>
      </trkpt>
      <trkpt lat="49.16833" lon="-0.69219">
        <ele>118.2</ele>
        <time>2011-08-15T13:49:41Z</time>
      </trkpt>
      <trkpt lat="49.16831" lon="-0.69206">
        <ele>118.8</ele>
        <time>2011-08-15T13:49:45Z</time>
      </trkpt>
      <trkpt lat="49.1683" lon="-0.69187">
        <ele>119</ele>
        <time>2011-08-15T13:49:50Z</time>
      </trkpt>
      <trkpt lat="49.16824" lon="-0.69151">
        <ele>120.8</ele>
        <time>2011-08-15T13:49:58Z</time>
      </trkpt>
      <trkpt lat="49.16823" lon="-0.69134">
        <ele>120.9</ele>
        <time>2011-08-15T13:50:02Z</time>
      </trkpt>
      <trkpt lat="49.16817" lon="-0.6906">
        <ele>119.8</ele>
        <time>2011-08-15T13:50:20Z</time>
      </trkpt>
      <trkpt lat="49.16813" lon="-0.69038">
        <ele>120</ele>
        <time>2011-08-15T13:50:26Z</time>
      </trkpt>
      <trkpt lat="49.16811" lon="-0.69005">
        <ele>119.6</ele>
        <time>2011-08-15T13:50:34Z</time>
      </trkpt>
      <trkpt lat="49.16807" lon="-0.68976">
        <ele>119.9</ele>
        <time>2011-08-15T13:50:42Z</time>
      </trkpt>
      <trkpt lat="49.16809" lon="-0.68946">
        <ele>125.1</ele>
        <time>2011-08-15T13:50:50Z</time>
      </trkpt>
      <trkpt lat="49.16809" lon="-0.68922">
        <ele>126.3</ele>
        <time>2011-08-15T13:50:55Z</time>
      </trkpt>
      <trkpt lat="49.16805" lon="-0.68874">
        <ele>128</ele>
        <time>2011-08-15T13:51:03Z</time>
      </trkpt>
      <trkpt lat="49.16798" lon="-0.68831">
        <ele>125.9</ele>
        <time>2011-08-15T13:51:11Z</time>
      </trkpt>
      <trkpt lat="49.1679" lon="-0.68808">
        <ele>122.4</ele>
        <time>2011-08-15T13:51:16Z</time>
      </trkpt>
      <trkpt lat="49.16783" lon="-0.68781">
        <ele>119.4</ele>
        <time>2011-08-15T13:51:21Z</time>
      </trkpt>
      <trkpt lat="49.16778" lon="-0.68764">
        <ele>119.5</ele>
        <time>2011-08-15T13:51:27Z</time>
      </trkpt>
      <trkpt lat="49.16757" lon="-0.68662">
        <ele>114.7</ele>
        <time>2011-08-15T13:51:48Z</time>
      </trkpt>
      <trkpt lat="49.16753" lon="-0.68637">
        <ele>116.6</ele>
        <time>2011-08-15T13:51:53Z</time>
      </trkpt>
      <trkpt lat="49.16747" lon="-0.68619">
        <ele>118.5</ele>
        <time>2011-08-15T13:51:57Z</time>
      </trkpt>
      <trkpt lat="49.16745" lon="-0.6861">
        <ele>118.3</ele>
        <time>2011-08-15T13:51:59Z</time>
      </trkpt>
      <trkpt lat="49.16744" lon="-0.68576">
        <ele>118.1</ele>
        <time>2011-08-15T13:52:06Z</time>
      </trkpt>
      <trkpt lat="49.16746" lon="-0.68541">
        <ele>123.8</ele>
        <time>2011-08-15T13:52:13Z</time>
      </trkpt>
      <trkpt lat="49.16744" lon="-0.6853">
        <ele>124.7</ele>
        <time>2011-08-15T13:52:16Z</time>
      </trkpt>
      <trkpt lat="49.16746" lon="-0.68506">
        <ele>129.8</ele>
        <time>2011-08-15T13:52:21Z</time>
      </trkpt>
      <trkpt lat="49.16723" lon="-0.68442">
        <ele>120.6</ele>
        <time>2011-08-15T13:52:34Z</time>
      </trkpt>
      <trkpt lat="49.16719" lon="-0.68434">
        <ele>118.9</ele>
        <time>2011-08-15T13:52:37Z</time>
      </trkpt>
      <trkpt lat="49.16707" lon="-0.68392">
        <ele>118.4</ele>
        <time>2011-08-15T13:52:48Z</time>
      </trkpt>
      <trkpt lat="49.167" lon="-0.68373">
        <ele>117.9</ele>
        <time>2011-08-15T13:52:52Z</time>
      </trkpt>
      <trkpt lat="49.16687" lon="-0.68329">
        <ele>121</ele>
        <time>2011-08-15T13:53:01Z</time>
      </trkpt>
      <trkpt lat="49.16665" lon="-0.68242">
        <ele>123</ele>
        <time>2011-08-15T13:53:23Z</time>
      </trkpt>
      <trkpt lat="49.16642" lon="-0.68162">
        <ele>123</ele>
        <time>2011-08-15T13:53:40Z</time>
      </trkpt>
      <trkpt lat="49.16615" lon="-0.68085">
        <ele>120.5</ele>
        <time>2011-08-15T13:56:40Z</time>
      </trkpt>
      <trkpt lat="49.16616" lon="-0.68083">
        <ele>121.8</ele>
        <time>2011-08-15T13:56:48Z</time>
      </trkpt>
      <trkpt lat="49.16614" lon="-0.68084">
        <ele>125.5</ele>
        <time>2011-08-15T13:58:02Z</time>
      </trkpt>
      <trkpt lat="49.16611" lon="-0.68082">
        <ele>123.7</ele>
        <time>2011-08-15T13:58:17Z</time>
      </trkpt>
      <trkpt lat="49.16606" lon="-0.68083">
        <ele>123.2</ele>
        <time>2011-08-15T13:58:19Z</time>
      </trkpt>
      <trkpt lat="49.1659" lon="-0.68091">
        <ele>123.1</ele>
        <time>2011-08-15T13:58:25Z</time>
      </trkpt>
      <trkpt lat="49.1655" lon="-0.68119">
        <ele>121.9</ele>
        <time>2011-08-15T13:58:36Z</time>
      </trkpt>
      <trkpt lat="49.16472" lon="-0.68181">
        <ele>120.8</ele>
        <time>2011-08-15T13:58:59Z</time>
      </trkpt>
      <trkpt lat="49.16402" lon="-0.6824">
        <ele>125.4</ele>
        <time>2011-08-15T13:59:24Z</time>
      </trkpt>
      <trkpt lat="49.16388" lon="-0.68254">
        <ele>126.1</ele>
        <time>2011-08-15T13:59:29Z</time>
      </trkpt>
      <trkpt lat="49.16347" lon="-0.68305">
        <ele>125.9</ele>
        <time>2011-08-15T13:59:44Z</time>
      </trkpt>
      <trkpt lat="49.16224" lon="-0.68437">
        <ele>130.3</ele>
        <time>2011-08-15T14:00:23Z</time>
      </trkpt>
      <trkpt lat="49.16193" lon="-0.68465">
        <ele>131.2</ele>
        <time>2011-08-15T14:00:32Z</time>
      </trkpt>
      <trkpt lat="49.16164" lon="-0.6849">
        <ele>131.2</ele>
        <time>2011-08-15T14:00:40Z</time>
      </trkpt>
      <trkpt lat="49.16116" lon="-0.68523">
        <ele>131.2</ele>
        <time>2011-08-15T14:00:53Z</time>
      </trkpt>
      <trkpt lat="49.16047" lon="-0.68581">
        <ele>129.9</ele>
        <time>2011-08-15T14:01:12Z</time>
      </trkpt>
      <trkpt lat="49.16032" lon="-0.68592">
        <ele>129.5</ele>
        <time>2011-08-15T14:01:16Z</time>
      </trkpt>
      <trkpt lat="49.15874" lon="-0.68697">
        <ele>129.7</ele>
        <time>2011-08-15T14:01:56Z</time>
      </trkpt>
      <trkpt lat="49.15826" lon="-0.68735">
        <ele>133.1</ele>
        <time>2011-08-15T14:02:09Z</time>
      </trkpt>
      <trkpt lat="49.15794" lon="-0.68757">
        <ele>130.6</ele>
        <time>2011-08-15T14:02:17Z</time>
      </trkpt>
      <trkpt lat="49.1575" lon="-0.68786">
        <ele>129.8</ele>
        <time>2011-08-15T14:02:29Z</time>
      </trkpt>
      <trkpt lat="49.15746" lon="-0.68786">
        <ele>130.1</ele>
        <time>2011-08-15T14:02:30Z</time>
      </trkpt>
      <trkpt lat="49.15742" lon="-0.68785">
        <ele>130.2</ele>
        <time>2011-08-15T14:02:31Z</time>
      </trkpt>
      <trkpt lat="49.15725" lon="-0.68774">
        <ele>130.9</ele>
        <time>2011-08-15T14:02:36Z</time>
      </trkpt>
      <trkpt lat="49.15706" lon="-0.68758">
        <ele>133.2</ele>
        <time>2011-08-15T14:02:43Z</time>
      </trkpt>
      <trkpt lat="49.15668" lon="-0.6873">
        <ele>137.2</ele>
        <time>2011-08-15T14:02:55Z</time>
      </trkpt>
      <trkpt lat="49.15652" lon="-0.6872">
        <ele>136.4</ele>
        <time>2011-08-15T14:02:59Z</time>
      </trkpt>
      <trkpt lat="49.15642" lon="-0.68716">
        <ele>134.2</ele>
        <time>2011-08-15T14:03:01Z</time>
      </trkpt>
      <trkpt lat="49.15608" lon="-0.68696">
        <ele>133.5</ele>
        <time>2011-08-15T14:03:10Z</time>
      </trkpt>
      <trkpt lat="49.156" lon="-0.68693">
        <ele>133.3</ele>
        <time>2011-08-15T14:03:12Z</time>
      </trkpt>
      <trkpt lat="49.15593" lon="-0.68692">
        <ele>133.2</ele>
        <time>2011-08-15T14:03:14Z</time>
      </trkpt>
      <trkpt lat="49.15585" lon="-0.68693">
        <ele>132.6</ele>
        <time>2011-08-15T14:03:16Z</time>
      </trkpt>
      <trkpt lat="49.15574" lon="-0.68698">
        <ele>131.8</ele>
        <time>2011-08-15T14:03:19Z</time>
      </trkpt>
      <trkpt lat="49.15569" lon="-0.68698">
        <ele>132.2</ele>
        <time>2011-08-15T14:03:21Z</time>
      </trkpt>
      <trkpt lat="49.15557" lon="-0.68675">
        <ele>132.2</ele>
        <time>2011-08-15T14:03:27Z</time>
      </trkpt>
      <trkpt lat="49.15552" lon="-0.68668">
        <ele>133.2</ele>
        <time>2011-08-15T14:03:29Z</time>
      </trkpt>
      <trkpt lat="49.15538" lon="-0.68659">
        <ele>132.8</ele>
        <time>2011-08-15T14:03:34Z</time>
      </trkpt>
      <trkpt lat="49.15508" lon="-0.68627">
        <ele>137.2</ele>
        <time>2011-08-15T14:03:44Z</time>
      </trkpt>
      <trkpt lat="49.15501" lon="-0.68622">
        <ele>135.8</ele>
        <time>2011-08-15T14:03:46Z</time>
      </trkpt>
      <trkpt lat="49.15493" lon="-0.68609">
        <ele>138</ele>
        <time>2011-08-15T14:03:50Z</time>
      </trkpt>
      <trkpt lat="49.15488" lon="-0.68607">
        <ele>139.4</ele>
        <time>2011-08-15T14:03:56Z</time>
      </trkpt>
      <trkpt lat="49.15487" lon="-0.68606">
        <ele>139.4</ele>
        <time>2011-08-15T14:04:12Z</time>
      </trkpt>
      <trkpt lat="49.15485" lon="-0.68599">
        <ele>141.4</ele>
        <time>2011-08-15T14:07:12Z</time>
      </trkpt>
      <trkpt lat="49.15485" lon="-0.6855">
        <ele>139.9</ele>
        <time>2011-08-15T14:07:25Z</time>
      </trkpt>
      <trkpt lat="49.15487" lon="-0.6849">
        <ele>141.1</ele>
        <time>2011-08-15T14:07:39Z</time>
      </trkpt>
      <trkpt lat="49.15486" lon="-0.68467">
        <ele>142.1</ele>
        <time>2011-08-15T14:07:44Z</time>
      </trkpt>
      <trkpt lat="49.15487" lon="-0.68414">
        <ele>142.4</ele>
        <time>2011-08-15T14:07:54Z</time>
      </trkpt>
      <trkpt lat="49.15499" lon="-0.68287">
        <ele>137.5</ele>
        <time>2011-08-15T14:08:22Z</time>
      </trkpt>
      <trkpt lat="49.15501" lon="-0.68229">
        <ele>137</ele>
        <time>2011-08-15T14:08:36Z</time>
      </trkpt>
      <trkpt lat="49.15499" lon="-0.68217">
        <ele>137.2</ele>
        <time>2011-08-15T14:08:39Z</time>
      </trkpt>
      <trkpt lat="49.15489" lon="-0.68188">
        <ele>137.6</ele>
        <time>2011-08-15T14:08:46Z</time>
      </trkpt>
      <trkpt lat="49.15484" lon="-0.68148">
        <ele>136.3</ele>
        <time>2011-08-15T14:08:56Z</time>
      </trkpt>
      <trkpt lat="49.15478" lon="-0.68057">
        <ele>136.3</ele>
        <time>2011-08-15T14:09:17Z</time>
      </trkpt>
      <trkpt lat="49.15474" lon="-0.67988">
        <ele>135.5</ele>
        <time>2011-08-15T14:09:35Z</time>
      </trkpt>
      <trkpt lat="49.15474" lon="-0.67957">
        <ele>134.9</ele>
        <time>2011-08-15T14:09:42Z</time>
      </trkpt>
      <trkpt lat="49.15464" lon="-0.67832">
        <ele>137.6</ele>
        <time>2011-08-15T14:10:12Z</time>
      </trkpt>
      <trkpt lat="49.15456" lon="-0.67795">
        <ele>138</ele>
        <time>2011-08-15T14:10:20Z</time>
      </trkpt>
      <trkpt lat="49.15451" lon="-0.67756">
        <ele>135.3</ele>
        <time>2011-08-15T14:10:29Z</time>
      </trkpt>
      <trkpt lat="49.15446" lon="-0.67733">
        <ele>135.3</ele>
        <time>2011-08-15T14:10:35Z</time>
      </trkpt>
      <trkpt lat="49.15443" lon="-0.67702">
        <ele>135.2</ele>
        <time>2011-08-15T14:10:44Z</time>
      </trkpt>
      <trkpt lat="49.15423" lon="-0.67579">
        <ele>138.5</ele>
        <time>2011-08-15T14:11:13Z</time>
      </trkpt>
      <trkpt lat="49.15414" lon="-0.67551">
        <ele>139.9</ele>
        <time>2011-08-15T14:11:19Z</time>
      </trkpt>
      <trkpt lat="49.1541" lon="-0.67526">
        <ele>142.4</ele>
        <time>2011-08-15T14:11:28Z</time>
      </trkpt>
      <trkpt lat="49.15407" lon="-0.67525">
        <ele>140.8</ele>
        <time>2011-08-15T14:11:35Z</time>
      </trkpt>
      <trkpt lat="49.1541" lon="-0.67524">
        <ele>141.5</ele>
        <time>2011-08-15T14:11:46Z</time>
      </trkpt>
      <trkpt lat="49.15409" lon="-0.67523">
        <ele>141.5</ele>
        <time>2011-08-15T14:11:48Z</time>
      </trkpt>
      <trkpt lat="49.15403" lon="-0.6752">
        <ele>140.7</ele>
        <time>2011-08-15T14:12:04Z</time>
      </trkpt>
      <trkpt lat="49.15417" lon="-0.67508">
        <ele>142.9</ele>
        <time>2011-08-15T14:12:16Z</time>
      </trkpt>
      <trkpt lat="49.1544" lon="-0.67493">
        <ele>141.6</ele>
        <time>2011-08-15T14:12:23Z</time>
      </trkpt>
      <trkpt lat="49.1545" lon="-0.67487">
        <ele>140.8</ele>
        <time>2011-08-15T14:12:26Z</time>
      </trkpt>
      <trkpt lat="49.15459" lon="-0.67485">
        <ele>140.8</ele>
        <time>2011-08-15T14:12:30Z</time>
      </trkpt>
      <trkpt lat="49.15482" lon="-0.6746">
        <ele>145.8</ele>
        <time>2011-08-15T14:12:38Z</time>
      </trkpt>
      <trkpt lat="49.15539" lon="-0.67421">
        <ele>144.6</ele>
        <time>2011-08-15T14:12:49Z</time>
      </trkpt>
      <trkpt lat="49.15558" lon="-0.67411">
        <ele>144.2</ele>
        <time>2011-08-15T14:12:53Z</time>
      </trkpt>
      <trkpt lat="49.15569" lon="-0.67399">
        <ele>144.3</ele>
        <time>2011-08-15T14:12:56Z</time>
      </trkpt>
      <trkpt lat="49.15581" lon="-0.67391">
        <ele>143.5</ele>
        <time>2011-08-15T14:13:00Z</time>
      </trkpt>
      <trkpt lat="49.15593" lon="-0.6738">
        <ele>143.2</ele>
        <time>2011-08-15T14:13:04Z</time>
      </trkpt>
      <trkpt lat="49.15633" lon="-0.67347">
        <ele>142.7</ele>
        <time>2011-08-15T14:13:16Z</time>
      </trkpt>
      <trkpt lat="49.1568" lon="-0.67317">
        <ele>144.4</ele>
        <time>2011-08-15T14:13:32Z</time>
      </trkpt>
      <trkpt lat="49.15694" lon="-0.67303">
        <ele>143.7</ele>
        <time>2011-08-15T14:13:36Z</time>
      </trkpt>
      <trkpt lat="49.15725" lon="-0.6728">
        <ele>142.7</ele>
        <time>2011-08-15T14:13:43Z</time>
      </trkpt>
      <trkpt lat="49.15737" lon="-0.67268">
        <ele>143</ele>
        <time>2011-08-15T14:13:46Z</time>
      </trkpt>
      <trkpt lat="49.15788" lon="-0.67231">
        <ele>143.6</ele>
        <time>2011-08-15T14:14:01Z</time>
      </trkpt>
      <trkpt lat="49.15797" lon="-0.67229">
        <ele>145.3</ele>
        <time>2011-08-15T14:14:03Z</time>
      </trkpt>
      <trkpt lat="49.15801" lon="-0.6723">
        <ele>145.7</ele>
        <time>2011-08-15T14:14:04Z</time>
      </trkpt>
      <trkpt lat="49.15822" lon="-0.67249">
        <ele>143</ele>
        <time>2011-08-15T14:14:10Z</time>
      </trkpt>
      <trkpt lat="49.15854" lon="-0.67287">
        <ele>142.2</ele>
        <time>2011-08-15T14:14:19Z</time>
      </trkpt>
      <trkpt lat="49.1587" lon="-0.67313">
        <ele>141.4</ele>
        <time>2011-08-15T14:14:24Z</time>
      </trkpt>
      <trkpt lat="49.15889" lon="-0.67338">
        <ele>140.1</ele>
        <time>2011-08-15T14:14:29Z</time>
      </trkpt>
      <trkpt lat="49.15909" lon="-0.67361">
        <ele>139.7</ele>
        <time>2011-08-15T14:14:35Z</time>
      </trkpt>
      <trkpt lat="49.15917" lon="-0.67366">
        <ele>140</ele>
        <time>2011-08-15T14:14:37Z</time>
      </trkpt>
      <trkpt lat="49.15923" lon="-0.67369">
        <ele>139.9</ele>
        <time>2011-08-15T14:14:39Z</time>
      </trkpt>
      <trkpt lat="49.15937" lon="-0.67364">
        <ele>140.4</ele>
        <time>2011-08-15T14:14:44Z</time>
      </trkpt>
      <trkpt lat="49.15965" lon="-0.67351">
        <ele>140.7</ele>
        <time>2011-08-15T14:14:52Z</time>
      </trkpt>
      <trkpt lat="49.1598" lon="-0.67336">
        <ele>142.4</ele>
        <time>2011-08-15T14:14:55Z</time>
      </trkpt>
      <trkpt lat="49.15997" lon="-0.67324">
        <ele>143.3</ele>
        <time>2011-08-15T14:14:58Z</time>
      </trkpt>
      <trkpt lat="49.16065" lon="-0.67291">
        <ele>140.6</ele>
        <time>2011-08-15T14:15:11Z</time>
      </trkpt>
      <trkpt lat="49.16098" lon="-0.67264">
        <ele>137.5</ele>
        <time>2011-08-15T14:15:17Z</time>
      </trkpt>
      <trkpt lat="49.16123" lon="-0.6724">
        <ele>135.8</ele>
        <time>2011-08-15T14:15:22Z</time>
      </trkpt>
      <trkpt lat="49.16199" lon="-0.6718">
        <ele>132.3</ele>
        <time>2011-08-15T14:15:37Z</time>
      </trkpt>
      <trkpt lat="49.16227" lon="-0.67161">
        <ele>131.7</ele>
        <time>2011-08-15T14:15:43Z</time>
      </trkpt>
      <trkpt lat="49.16269" lon="-0.67122">
        <ele>130</ele>
        <time>2011-08-15T14:15:52Z</time>
      </trkpt>
      <trkpt lat="49.16308" lon="-0.67092">
        <ele>127</ele>
        <time>2011-08-15T14:16:03Z</time>
      </trkpt>
      <trkpt lat="49.16353" lon="-0.67052">
        <ele>125.9</ele>
        <time>2011-08-15T14:16:14Z</time>
      </trkpt>
      <trkpt lat="49.16385" lon="-0.67026">
        <ele>125.2</ele>
        <time>2011-08-15T14:16:23Z</time>
      </trkpt>
      <trkpt lat="49.16394" lon="-0.67011">
        <ele>124.5</ele>
        <time>2011-08-15T14:16:26Z</time>
      </trkpt>
      <trkpt lat="49.16399" lon="-0.66997">
        <ele>123.5</ele>
        <time>2011-08-15T14:16:28Z</time>
      </trkpt>
      <trkpt lat="49.16411" lon="-0.66959">
        <ele>121</ele>
        <time>2011-08-15T14:16:33Z</time>
      </trkpt>
      <trkpt lat="49.16423" lon="-0.66908">
        <ele>118.2</ele>
        <time>2011-08-15T14:16:39Z</time>
      </trkpt>
      <trkpt lat="49.16433" lon="-0.66882">
        <ele>117.3</ele>
        <time>2011-08-15T14:16:44Z</time>
      </trkpt>
      <trkpt lat="49.16436" lon="-0.66879">
        <ele>112.4</ele>
        <time>2011-08-15T14:17:23Z</time>
      </trkpt>
      <trkpt lat="49.16462" lon="-0.66807">
        <ele>109.7</ele>
        <time>2011-08-15T14:17:47Z</time>
      </trkpt>
      <trkpt lat="49.16467" lon="-0.66797">
        <ele>109.3</ele>
        <time>2011-08-15T14:17:50Z</time>
      </trkpt>
      <trkpt lat="49.16475" lon="-0.66785">
        <ele>109.4</ele>
        <time>2011-08-15T14:17:54Z</time>
      </trkpt>
      <trkpt lat="49.165" lon="-0.66786">
        <ele>114.4</ele>
        <time>2011-08-15T14:18:01Z</time>
      </trkpt>
      <trkpt lat="49.16514" lon="-0.66782">
        <ele>115.7</ele>
        <time>2011-08-15T14:18:05Z</time>
      </trkpt>
      <trkpt lat="49.16526" lon="-0.66774">
        <ele>117.4</ele>
        <time>2011-08-15T14:18:08Z</time>
      </trkpt>
      <trkpt lat="49.16534" lon="-0.66764">
        <ele>118.9</ele>
        <time>2011-08-15T14:18:11Z</time>
      </trkpt>
      <trkpt lat="49.16537" lon="-0.66751">
        <ele>122.2</ele>
        <time>2011-08-15T14:18:15Z</time>
      </trkpt>
      <trkpt lat="49.16535" lon="-0.66745">
        <ele>122.6</ele>
        <time>2011-08-15T14:18:17Z</time>
      </trkpt>
      <trkpt lat="49.16539" lon="-0.66723">
        <ele>123.1</ele>
        <time>2011-08-15T14:18:23Z</time>
      </trkpt>
      <trkpt lat="49.16562" lon="-0.66663">
        <ele>120.7</ele>
        <time>2011-08-15T14:18:43Z</time>
      </trkpt>
      <trkpt lat="49.16578" lon="-0.66604">
        <ele>123.3</ele>
        <time>2011-08-15T14:19:13Z</time>
      </trkpt>
      <trkpt lat="49.16583" lon="-0.66593">
        <ele>123.7</ele>
        <time>2011-08-15T14:19:30Z</time>
      </trkpt>
      <trkpt lat="49.16581" lon="-0.6659">
        <ele>116.9</ele>
        <time>2011-08-15T14:19:44Z</time>
      </trkpt>
      <trkpt lat="49.16583" lon="-0.66587">
        <ele>114.4</ele>
        <time>2011-08-15T14:20:02Z</time>
      </trkpt>
      <trkpt lat="49.16582" lon="-0.66585">
        <ele>111.5</ele>
        <time>2011-08-15T14:20:24Z</time>
      </trkpt>
      <trkpt lat="49.16585" lon="-0.66583">
        <ele>116.9</ele>
        <time>2011-08-15T14:22:41Z</time>
      </trkpt>
      <trkpt lat="49.16586" lon="-0.66582">
        <ele>119</ele>
        <time>2011-08-15T14:22:46Z</time>
      </trkpt>
      <trkpt lat="49.16585" lon="-0.66577">
        <ele>118.5</ele>
        <time>2011-08-15T14:22:55Z</time>
      </trkpt>
      <trkpt lat="49.16591" lon="-0.66548">
        <ele>118.3</ele>
        <time>2011-08-15T14:23:11Z</time>
      </trkpt>
      <trkpt lat="49.16593" lon="-0.66526">
        <ele>115.1</ele>
        <time>2011-08-15T14:23:22Z</time>
      </trkpt>
      <trkpt lat="49.16604" lon="-0.66468">
        <ele>118.1</ele>
        <time>2011-08-15T14:23:43Z</time>
      </trkpt>
      <trkpt lat="49.16612" lon="-0.66438">
        <ele>120.3</ele>
        <time>2011-08-15T14:23:52Z</time>
      </trkpt>
      <trkpt lat="49.16645" lon="-0.6636">
        <ele>117.4</ele>
        <time>2011-08-15T14:24:11Z</time>
      </trkpt>
      <trkpt lat="49.16653" lon="-0.66327">
        <ele>119.2</ele>
        <time>2011-08-15T14:24:25Z</time>
      </trkpt>
      <trkpt lat="49.16664" lon="-0.66304">
        <ele>122.9</ele>
        <time>2011-08-15T14:24:31Z</time>
      </trkpt>
      <trkpt lat="49.16672" lon="-0.66282">
        <ele>124.9</ele>
        <time>2011-08-15T14:24:36Z</time>
      </trkpt>
      <trkpt lat="49.1668" lon="-0.66254">
        <ele>125.1</ele>
        <time>2011-08-15T14:24:42Z</time>
      </trkpt>
      <trkpt lat="49.16683" lon="-0.66245">
        <ele>125.3</ele>
        <time>2011-08-15T14:24:44Z</time>
      </trkpt>
      <trkpt lat="49.16696" lon="-0.66222">
        <ele>124.6</ele>
        <time>2011-08-15T14:24:50Z</time>
      </trkpt>
      <trkpt lat="49.16703" lon="-0.66221">
        <ele>124.7</ele>
        <time>2011-08-15T14:24:52Z</time>
      </trkpt>
      <trkpt lat="49.16718" lon="-0.66225">
        <ele>124.4</ele>
        <time>2011-08-15T14:24:56Z</time>
      </trkpt>
      <trkpt lat="49.16751" lon="-0.66227">
        <ele>123.4</ele>
        <time>2011-08-15T14:25:04Z</time>
      </trkpt>
      <trkpt lat="49.16769" lon="-0.66227">
        <ele>122.9</ele>
        <time>2011-08-15T14:25:08Z</time>
      </trkpt>
      <trkpt lat="49.16784" lon="-0.66225">
        <ele>123.9</ele>
        <time>2011-08-15T14:25:12Z</time>
      </trkpt>
      <trkpt lat="49.16789" lon="-0.66226">
        <ele>124.5</ele>
        <time>2011-08-15T14:25:16Z</time>
      </trkpt>
      <trkpt lat="49.16789" lon="-0.66225">
        <ele>122</ele>
        <time>2011-08-15T14:26:01Z</time>
      </trkpt>
      <trkpt lat="49.16818" lon="-0.66216">
        <ele>118.4</ele>
        <time>2011-08-15T14:26:46Z</time>
      </trkpt>
      <trkpt lat="49.16867" lon="-0.66202">
        <ele>117</ele>
        <time>2011-08-15T14:27:00Z</time>
      </trkpt>
      <trkpt lat="49.16906" lon="-0.66193">
        <ele>114.8</ele>
        <time>2011-08-15T14:27:10Z</time>
      </trkpt>
      <trkpt lat="49.16949" lon="-0.66179">
        <ele>114.8</ele>
        <time>2011-08-15T14:27:22Z</time>
      </trkpt>
      <trkpt lat="49.16954" lon="-0.66174">
        <ele>114.8</ele>
        <time>2011-08-15T14:27:25Z</time>
      </trkpt>
      <trkpt lat="49.16953" lon="-0.66145">
        <ele>116</ele>
        <time>2011-08-15T14:27:34Z</time>
      </trkpt>
      <trkpt lat="49.16956" lon="-0.66136">
        <ele>116.2</ele>
        <time>2011-08-15T14:27:36Z</time>
      </trkpt>
      <trkpt lat="49.1696" lon="-0.66129">
        <ele>116.1</ele>
        <time>2011-08-15T14:27:38Z</time>
      </trkpt>
      <trkpt lat="49.16971" lon="-0.66125">
        <ele>115.2</ele>
        <time>2011-08-15T14:27:42Z</time>
      </trkpt>
      <trkpt lat="49.17004" lon="-0.66114">
        <ele>114.8</ele>
        <time>2011-08-15T14:27:51Z</time>
      </trkpt>
      <trkpt lat="49.17075" lon="-0.66098">
        <ele>112.7</ele>
        <time>2011-08-15T14:28:06Z</time>
      </trkpt>
      <trkpt lat="49.17082" lon="-0.66094">
        <ele>113.2</ele>
        <time>2011-08-15T14:28:08Z</time>
      </trkpt>
      <trkpt lat="49.17085" lon="-0.66084">
        <ele>113.9</ele>
        <time>2011-08-15T14:28:11Z</time>
      </trkpt>
      <trkpt lat="49.17081" lon="-0.66066">
        <ele>113.5</ele>
        <time>2011-08-15T14:28:17Z</time>
      </trkpt>
      <trkpt lat="49.17079" lon="-0.66024">
        <ele>111.6</ele>
        <time>2011-08-15T14:28:28Z</time>
      </trkpt>
      <trkpt lat="49.17078" lon="-0.66014">
        <ele>107.5</ele>
        <time>2011-08-15T14:29:33Z</time>
      </trkpt>
      <trkpt lat="49.17077" lon="-0.66012">
        <ele>105.2</ele>
        <time>2011-08-15T14:29:37Z</time>
      </trkpt>
      <trkpt lat="49.17074" lon="-0.66014">
        <ele>105.8</ele>
        <time>2011-08-15T14:29:50Z</time>
      </trkpt>
      <trkpt lat="49.17074" lon="-0.66013">
        <ele>107.3</ele>
        <time>2011-08-15T14:29:57Z</time>
      </trkpt>
      <trkpt lat="49.17075" lon="-0.66007">
        <ele>106</ele>
        <time>2011-08-15T14:29:59Z</time>
      </trkpt>
      <trkpt lat="49.17078" lon="-0.66003">
        <ele>105.5</ele>
        <time>2011-08-15T14:30:01Z</time>
      </trkpt>
      <trkpt lat="49.17097" lon="-0.65993">
        <ele>108.8</ele>
        <time>2011-08-15T14:30:10Z</time>
      </trkpt>
      <trkpt lat="49.17108" lon="-0.65989">
        <ele>110.3</ele>
        <time>2011-08-15T14:30:14Z</time>
      </trkpt>
      <trkpt lat="49.17117" lon="-0.65988">
        <ele>111.6</ele>
        <time>2011-08-15T14:30:17Z</time>
      </trkpt>
      <trkpt lat="49.17131" lon="-0.65984">
        <ele>112.4</ele>
        <time>2011-08-15T14:30:21Z</time>
      </trkpt>
      <trkpt lat="49.17161" lon="-0.65981">
        <ele>115.6</ele>
        <time>2011-08-15T14:30:29Z</time>
      </trkpt>
      <trkpt lat="49.17228" lon="-0.65978">
        <ele>115.2</ele>
        <time>2011-08-15T14:30:45Z</time>
      </trkpt>
      <trkpt lat="49.17255" lon="-0.65974">
        <ele>116.5</ele>
        <time>2011-08-15T14:30:51Z</time>
      </trkpt>
      <trkpt lat="49.1734" lon="-0.65976">
        <ele>113.3</ele>
        <time>2011-08-15T14:31:09Z</time>
      </trkpt>
      <trkpt lat="49.17401" lon="-0.65979">
        <ele>110.8</ele>
        <time>2011-08-15T14:31:24Z</time>
      </trkpt>
      <trkpt lat="49.17426" lon="-0.65976">
        <ele>108.1</ele>
        <time>2011-08-15T14:31:34Z</time>
      </trkpt>
      <trkpt lat="49.17447" lon="-0.65979">
        <ele>108.2</ele>
        <time>2011-08-15T14:31:43Z</time>
      </trkpt>
      <trkpt lat="49.17449" lon="-0.65987">
        <ele>108.5</ele>
        <time>2011-08-15T14:31:46Z</time>
      </trkpt>
      <trkpt lat="49.17451" lon="-0.66064">
        <ele>106.7</ele>
        <time>2011-08-15T14:32:04Z</time>
      </trkpt>
      <trkpt lat="49.17451" lon="-0.66106">
        <ele>105.5</ele>
        <time>2011-08-15T14:32:13Z</time>
      </trkpt>
      <trkpt lat="49.17454" lon="-0.66137">
        <ele>104.1</ele>
        <time>2011-08-15T14:32:18Z</time>
      </trkpt>
      <trkpt lat="49.17458" lon="-0.66157">
        <ele>103.3</ele>
        <time>2011-08-15T14:32:21Z</time>
      </trkpt>
      <trkpt lat="49.17471" lon="-0.66189">
        <ele>102.7</ele>
        <time>2011-08-15T14:32:26Z</time>
      </trkpt>
      <trkpt lat="49.17476" lon="-0.66202">
        <ele>102.7</ele>
        <time>2011-08-15T14:32:28Z</time>
      </trkpt>
      <trkpt lat="49.17486" lon="-0.66275">
        <ele>102.9</ele>
        <time>2011-08-15T14:32:40Z</time>
      </trkpt>
      <trkpt lat="49.1749" lon="-0.66289">
        <ele>102.9</ele>
        <time>2011-08-15T14:32:44Z</time>
      </trkpt>
      <trkpt lat="49.17492" lon="-0.6629">
        <ele>102.9</ele>
        <time>2011-08-15T14:32:46Z</time>
      </trkpt>
      <trkpt lat="49.17501" lon="-0.66288">
        <ele>103.6</ele>
        <time>2011-08-15T14:32:50Z</time>
      </trkpt>
      <trkpt lat="49.17511" lon="-0.6629">
        <ele>102.3</ele>
        <time>2011-08-15T14:32:54Z</time>
      </trkpt>
      <trkpt lat="49.17538" lon="-0.6629">
        <ele>100</ele>
        <time>2011-08-15T14:33:00Z</time>
      </trkpt>
      <trkpt lat="49.1755" lon="-0.66288">
        <ele>97.7</ele>
        <time>2011-08-15T14:33:03Z</time>
      </trkpt>
      <trkpt lat="49.17567" lon="-0.66288">
        <ele>95.3</ele>
        <time>2011-08-15T14:33:07Z</time>
      </trkpt>
      <trkpt lat="49.17581" lon="-0.66289">
        <ele>94.9</ele>
        <time>2011-08-15T14:33:10Z</time>
      </trkpt>
      <trkpt lat="49.1764" lon="-0.66286">
        <ele>92.1</ele>
        <time>2011-08-15T14:33:25Z</time>
      </trkpt>
      <trkpt lat="49.17656" lon="-0.66287">
        <ele>90.8</ele>
        <time>2011-08-15T14:33:29Z</time>
      </trkpt>
      <trkpt lat="49.17664" lon="-0.6629">
        <ele>91.6</ele>
        <time>2011-08-15T14:33:31Z</time>
      </trkpt>
      <trkpt lat="49.17668" lon="-0.66293">
        <ele>92.1</ele>
        <time>2011-08-15T14:33:32Z</time>
      </trkpt>
      <trkpt lat="49.17691" lon="-0.66322">
        <ele>95.5</ele>
        <time>2011-08-15T14:33:39Z</time>
      </trkpt>
      <trkpt lat="49.1773" lon="-0.66384">
        <ele>95.2</ele>
        <time>2011-08-15T14:33:54Z</time>
      </trkpt>
      <trkpt lat="49.17744" lon="-0.66403">
        <ele>94.4</ele>
        <time>2011-08-15T14:33:59Z</time>
      </trkpt>
      <trkpt lat="49.17763" lon="-0.66431">
        <ele>94.5</ele>
        <time>2011-08-15T14:34:06Z</time>
      </trkpt>
      <trkpt lat="49.17775" lon="-0.66443">
        <ele>95.9</ele>
        <time>2011-08-15T14:34:10Z</time>
      </trkpt>
      <trkpt lat="49.17794" lon="-0.66453">
        <ele>95.4</ele>
        <time>2011-08-15T14:34:15Z</time>
      </trkpt>
      <trkpt lat="49.17807" lon="-0.66467">
        <ele>96.2</ele>
        <time>2011-08-15T14:34:19Z</time>
      </trkpt>
      <trkpt lat="49.17815" lon="-0.66484">
        <ele>92.7</ele>
        <time>2011-08-15T14:34:24Z</time>
      </trkpt>
      <trkpt lat="49.17823" lon="-0.66492">
        <ele>92.5</ele>
        <time>2011-08-15T14:34:32Z</time>
      </trkpt>
      <trkpt lat="49.17858" lon="-0.66545">
        <ele>92.2</ele>
        <time>2011-08-15T14:34:51Z</time>
      </trkpt>
      <trkpt lat="49.17868" lon="-0.66559">
        <ele>90.8</ele>
        <time>2011-08-15T14:34:56Z</time>
      </trkpt>
      <trkpt lat="49.17871" lon="-0.66565">
        <ele>90.1</ele>
        <time>2011-08-15T14:34:58Z</time>
      </trkpt>
      <trkpt lat="49.1787" lon="-0.66572">
        <ele>89.5</ele>
        <time>2011-08-15T14:35:00Z</time>
      </trkpt>
      <trkpt lat="49.17864" lon="-0.66584">
        <ele>88</ele>
        <time>2011-08-15T14:35:04Z</time>
      </trkpt>
      <trkpt lat="49.17858" lon="-0.66593">
        <ele>86.7</ele>
        <time>2011-08-15T14:35:08Z</time>
      </trkpt>
      <trkpt lat="49.17851" lon="-0.66603">
        <ele>85.2</ele>
        <time>2011-08-15T14:35:14Z</time>
      </trkpt>
      <trkpt lat="49.17844" lon="-0.66609">
        <ele>84.3</ele>
        <time>2011-08-15T14:35:20Z</time>
      </trkpt>
      <trkpt lat="49.17842" lon="-0.66613">
        <ele>84.5</ele>
        <time>2011-08-15T14:35:22Z</time>
      </trkpt>
      <trkpt lat="49.17844" lon="-0.66619">
        <ele>85.1</ele>
        <time>2011-08-15T14:35:25Z</time>
      </trkpt>
      <trkpt lat="49.17854" lon="-0.66632">
        <ele>86.6</ele>
        <time>2011-08-15T14:35:32Z</time>
      </trkpt>
      <trkpt lat="49.17926" lon="-0.66708">
        <ele>103</ele>
        <time>2011-08-15T14:36:03Z</time>
      </trkpt>
      <trkpt lat="49.17936" lon="-0.66722">
        <ele>102.5</ele>
        <time>2011-08-15T14:36:08Z</time>
      </trkpt>
      <trkpt lat="49.17937" lon="-0.66727">
        <ele>85</ele>
        <time>2011-08-15T14:37:56Z</time>
      </trkpt>
      <trkpt lat="49.17935" lon="-0.66733">
        <ele>85</ele>
        <time>2011-08-15T14:38:03Z</time>
      </trkpt>
      <trkpt lat="49.1792" lon="-0.66796">
        <ele>86.8</ele>
        <time>2011-08-15T14:38:26Z</time>
      </trkpt>
      <trkpt lat="49.17908" lon="-0.66886">
        <ele>89.4</ele>
        <time>2011-08-15T14:38:50Z</time>
      </trkpt>
      <trkpt lat="49.17884" lon="-0.67029">
        <ele>90.6</ele>
        <time>2011-08-15T14:39:24Z</time>
      </trkpt>
      <trkpt lat="49.17866" lon="-0.67154">
        <ele>91.5</ele>
        <time>2011-08-15T14:39:52Z</time>
      </trkpt>
      <trkpt lat="49.17846" lon="-0.67271">
        <ele>91.4</ele>
        <time>2011-08-15T14:40:19Z</time>
      </trkpt>
      <trkpt lat="49.17835" lon="-0.67346">
        <ele>90.3</ele>
        <time>2011-08-15T14:40:35Z</time>
      </trkpt>
      <trkpt lat="49.17831" lon="-0.67368">
        <ele>90.8</ele>
        <time>2011-08-15T14:40:40Z</time>
      </trkpt>
      <trkpt lat="49.17829" lon="-0.67374">
        <ele>90.9</ele>
        <time>2011-08-15T14:40:42Z</time>
      </trkpt>
      <trkpt lat="49.17823" lon="-0.67379">
        <ele>91.2</ele>
        <time>2011-08-15T14:40:44Z</time>
      </trkpt>
      <trkpt lat="49.17812" lon="-0.67382">
        <ele>90.8</ele>
        <time>2011-08-15T14:40:47Z</time>
      </trkpt>
      <trkpt lat="49.17795" lon="-0.67391">
        <ele>89.7</ele>
        <time>2011-08-15T14:40:51Z</time>
      </trkpt>
      <trkpt lat="49.17772" lon="-0.67406">
        <ele>88.1</ele>
        <time>2011-08-15T14:40:56Z</time>
      </trkpt>
      <trkpt lat="49.1773" lon="-0.67442">
        <ele>87.1</ele>
        <time>2011-08-15T14:41:07Z</time>
      </trkpt>
      <trkpt lat="49.177" lon="-0.67465">
        <ele>87.5</ele>
        <time>2011-08-15T14:41:16Z</time>
      </trkpt>
      <trkpt lat="49.17691" lon="-0.67469">
        <ele>87.8</ele>
        <time>2011-08-15T14:41:19Z</time>
      </trkpt>
      <trkpt lat="49.17666" lon="-0.67486">
        <ele>91</ele>
        <time>2011-08-15T14:41:27Z</time>
      </trkpt>
      <trkpt lat="49.17657" lon="-0.6749">
        <ele>91</ele>
        <time>2011-08-15T14:41:30Z</time>
      </trkpt>
      <trkpt lat="49.1765" lon="-0.6749">
        <ele>91.5</ele>
        <time>2011-08-15T14:41:32Z</time>
      </trkpt>
      <trkpt lat="49.17639" lon="-0.67489">
        <ele>92.6</ele>
        <time>2011-08-15T14:41:35Z</time>
      </trkpt>
      <trkpt lat="49.17629" lon="-0.67483">
        <ele>93.8</ele>
        <time>2011-08-15T14:41:38Z</time>
      </trkpt>
      <trkpt lat="49.176" lon="-0.67453">
        <ele>100.9</ele>
        <time>2011-08-15T14:41:50Z</time>
      </trkpt>
      <trkpt lat="49.17584" lon="-0.67433">
        <ele>103.8</ele>
        <time>2011-08-15T14:41:57Z</time>
      </trkpt>
      <trkpt lat="49.17564" lon="-0.67402">
        <ele>100.8</ele>
        <time>2011-08-15T14:42:07Z</time>
      </trkpt>
      <trkpt lat="49.1755" lon="-0.67384">
        <ele>99.8</ele>
        <time>2011-08-15T14:42:15Z</time>
      </trkpt>
      <trkpt lat="49.1755" lon="-0.67376">
        <ele>92.2</ele>
        <time>2011-08-15T14:42:37Z</time>
      </trkpt>
      <trkpt lat="49.17549" lon="-0.67377">
        <ele>91.4</ele>
        <time>2011-08-15T14:42:41Z</time>
      </trkpt>
      <trkpt lat="49.17546" lon="-0.67375">
        <ele>81.4</ele>
        <time>2011-08-15T14:42:54Z</time>
      </trkpt>
      <trkpt lat="49.17546" lon="-0.67376">
        <ele>81.5</ele>
        <time>2011-08-15T14:42:57Z</time>
      </trkpt>
    </trkseg>
  </trk>
</gpx>